createdAt,value
2017-07-21T07:57:44.358Z,34.8
2017-07-21T07:57:46.970Z,34.4
2017-07-21T07:57:51.443Z,34.2
2017-07-21T07:57:53.749Z,33.7
2017-07-21T07:57:56.453Z,34.1
2017-07-21T07:57:59.173Z,34.1
2017-07-21T07:58:03.559Z,34.7
2017-07-21T07:58:12.356Z,34.2
2017-07-21T07:58:16.094Z,33.7
2017-07-21T07:58:18.914Z,33.4
2017-07-21T07:58:21.766Z,33.2
2017-07-21T07:58:24.584Z,33.1
2017-07-21T07:58:27.368Z,33.0
2017-07-21T07:58:30.102Z,33.0
2017-07-21T07:58:32.931Z,33.4
2017-07-21T07:58:35.792Z,33.2
2017-07-21T07:58:38.982Z,33.0
2017-07-21T07:58:41.801Z,32.9
2017-07-21T07:58:44.759Z,32.7
2017-07-21T07:58:47.905Z,32.6
2017-07-21T07:58:51.084Z,32.6
2017-07-21T07:58:54.473Z,32.6
2017-07-21T07:58:57.446Z,32.7
2017-07-21T07:59:00.503Z,32.8
2017-07-21T07:59:03.518Z,32.8
2017-07-21T07:59:06.795Z,32.9
2017-07-21T07:59:09.565Z,33.0
2017-07-21T07:59:12.314Z,33.2
2017-07-21T07:59:15.246Z,33.3
2017-07-21T07:59:18.111Z,33.1
2017-07-21T07:59:20.875Z,33.2
2017-07-21T07:59:23.487Z,32.9
2017-07-21T07:59:26.473Z,32.9
2017-07-21T07:59:29.435Z,32.8
2017-07-21T07:59:33.907Z,32.6
2017-07-21T07:59:37.061Z,33.0
2017-07-21T07:59:42.403Z,33.0
2017-07-21T07:59:44.906Z,33.5
2017-07-21T07:59:47.728Z,33.7
2017-07-21T07:59:51.257Z,34.0
2017-07-21T07:59:53.945Z,34.4
2017-07-21T07:59:56.728Z,34.4
2017-07-21T07:59:59.489Z,34.6
2017-07-21T08:00:02.232Z,34.4
2017-07-21T08:00:04.912Z,34.6
2017-07-21T08:00:07.686Z,34.5
2017-07-21T08:00:10.520Z,34.6
2017-07-21T08:00:13.380Z,34.6
2017-07-21T08:00:16.238Z,35.0
2017-07-21T08:00:19.009Z,34.6
2017-07-21T08:00:21.925Z,34.8
2017-07-21T08:00:24.688Z,34.8
2017-07-21T08:00:27.549Z,34.8
2017-07-21T08:00:30.320Z,34.6
2017-07-21T08:00:33.117Z,35.0
2017-07-21T08:00:35.871Z,34.9
2017-07-21T08:00:38.713Z,34.6
2017-07-21T08:00:41.502Z,35.0
2017-07-21T08:00:44.294Z,34.9
2017-07-21T08:00:47.022Z,34.9
2017-07-21T08:00:49.780Z,34.7
2017-07-21T08:00:52.558Z,34.7
2017-07-21T08:00:55.266Z,35.1
2017-07-21T08:00:58.000Z,35.1
2017-07-21T08:01:00.748Z,34.6
2017-07-21T08:01:03.585Z,34.6
2017-07-21T08:01:06.361Z,34.6
2017-07-21T08:01:09.542Z,34.6
2017-07-21T08:01:12.733Z,34.7
2017-07-21T08:01:15.827Z,35.0
2017-07-21T08:01:18.905Z,34.7
2017-07-21T08:01:21.833Z,34.9
2017-07-21T08:01:25.016Z,34.9
2017-07-21T08:01:28.027Z,34.6
2017-07-21T08:01:31.166Z,34.9
2017-07-21T08:01:34.295Z,35.1
2017-07-21T08:01:37.372Z,34.6
2017-07-21T08:01:40.238Z,35.1
2017-07-21T08:01:43.087Z,34.7
2017-07-21T08:01:45.815Z,34.6
